sensor_id;sensor_type;location;lat;lon;timestamp;P1;durP1;ratioP1;P2;durP2;ratioP2
37903;SDS011;23738;50.422;18.758;2023-12-04T00:00:40;74.50;;;31.20;;
37903;SDS011;23738;50.422;18.758;2023-12-04T00:03:10;74.00;;;31.10;;
37903;SDS011;23738;50.422;18.758;2023-12-04T00:05:41;73.50;;;30.00;;
37903;SDS011;23738;50.422;18.758;2023-12-04T00:08:12;81.80;;;33.90;;
37903;SDS011;23738;50.422;18.758;2023-12-04T00:10:42;93.00;;;38.50;;
37903;SDS011;23738;50.422;18.758;2023-12-04T00:13:12;78.40;;;34.40;;
37903;SDS011;23738;50.422;18.758;2023-12-04T00:15:42;81.50;;;35.00;;
37903;SDS011;23738;50.422;18.758;2023-12-04T00:18:12;92.70;;;40.60;;
37903;SDS011;23738;50.422;18.758;2023-12-04T00:20:42;87.90;;;40.00;;
37903;SDS011;23738;50.422;18.758;2023-12-04T00:23:12;86.10;;;38.60;;
37903;SDS011;23738;50.422;18.758;2023-12-04T00:25:42;94.40;;;41.20;;
37903;SDS011;23738;50.422;18.758;2023-12-04T00:28:11;93.30;;;39.80;;
37903;SDS011;23738;50.422;18.758;2023-12-04T00:30:41;91.20;;;38.80;;
37903;SDS011;23738;50.422;18.758;2023-12-04T00:33:11;74.50;;;34.10;;
37903;SDS011;23738;50.422;18.758;2023-12-04T00:35:41;80.40;;;35.00;;
37903;SDS011;23738;50.422;18.758;2023-12-04T00:38:11;75.90;;;33.60;;
37903;SDS011;23738;50.422;18.758;2023-12-04T00:40:41;82.80;;;35.30;;
37903;SDS011;23738;50.422;18.758;2023-12-04T00:43:11;73.20;;;33.20;;
37903;SDS011;23738;50.422;18.758;2023-12-04T00:45:41;84.90;;;35.50;;
37903;SDS011;23738;50.422;18.758;2023-12-04T00:48:11;81.90;;;35.10;;
37903;SDS011;23738;50.422;18.758;2023-12-04T00:54:03;87.10;;;36.60;;
37903;SDS011;23738;50.422;18.758;2023-12-04T00:56:32;84.10;;;37.60;;
37903;SDS011;23738;50.422;18.758;2023-12-04T00:59:02;105.60;;;41.70;;
37903;SDS011;23738;50.422;18.758;2023-12-04T01:01:33;126.60;;;48.10;;
37903;SDS011;23738;50.422;18.758;2023-12-04T01:04:03;150.80;;;55.30;;
37903;SDS011;23738;50.422;18.758;2023-12-04T01:06:33;157.10;;;57.00;;
37903;SDS011;23738;50.422;18.758;2023-12-04T01:09:03;245.90;;;92.40;;
37903;SDS011;23738;50.422;18.758;2023-12-04T01:11:33;175.80;;;70.80;;
37903;SDS011;23738;50.422;18.758;2023-12-04T01:14:03;194.10;;;77.40;;
37903;SDS011;23738;50.422;18.758;2023-12-04T01:16:34;194.30;;;78.40;;
37903;SDS011;23738;50.422;18.758;2023-12-04T01:19:04;194.50;;;77.70;;
37903;SDS011;23738;50.422;18.758;2023-12-04T01:21:35;183.90;;;72.20;;
37903;SDS011;23738;50.422;18.758;2023-12-04T01:24:05;177.30;;;72.50;;
37903;SDS011;23738;50.422;18.758;2023-12-04T01:26:35;168.90;;;67.50;;
37903;SDS011;23738;50.422;18.758;2023-12-04T01:29:05;160.20;;;61.60;;
37903;SDS011;23738;50.422;18.758;2023-12-04T01:31:36;154.30;;;53.80;;
37903;SDS011;23738;50.422;18.758;2023-12-04T01:34:06;150.90;;;52.10;;
37903;SDS011;23738;50.422;18.758;2023-12-04T01:36:39;124.60;;;48.70;;
37903;SDS011;23738;50.422;18.758;2023-12-04T01:39:10;129.90;;;50.00;;
37903;SDS011;23738;50.422;18.758;2023-12-04T01:41:40;125.40;;;51.20;;
37903;SDS011;23738;50.422;18.758;2023-12-04T01:44:10;121.20;;;49.90;;
37903;SDS011;23738;50.422;18.758;2023-12-04T01:46:40;108.70;;;43.50;;
37903;SDS011;23738;50.422;18.758;2023-12-04T01:49:11;114.30;;;44.10;;
37903;SDS011;23738;50.422;18.758;2023-12-04T01:51:44;98.30;;;42.30;;
37903;SDS011;23738;50.422;18.758;2023-12-04T01:54:14;87.60;;;39.70;;
37903;SDS011;23738;50.422;18.758;2023-12-04T01:56:45;81.40;;;35.10;;
37903;SDS011;23738;50.422;18.758;2023-12-04T01:59:16;78.30;;;32.80;;
37903;SDS011;23738;50.422;18.758;2023-12-04T02:02:07;83.70;;;34.20;;
37903;SDS011;23738;50.422;18.758;2023-12-04T02:04:37;81.60;;;32.40;;
37903;SDS011;23738;50.422;18.758;2023-12-04T02:07:08;74.40;;;30.80;;
37903;SDS011;23738;50.422;18.758;2023-12-04T02:09:38;67.20;;;28.60;;
37903;SDS011;23738;50.422;18.758;2023-12-04T02:12:08;62.20;;;27.50;;
37903;SDS011;23738;50.422;18.758;2023-12-04T02:14:38;67.30;;;29.60;;
37903;SDS011;23738;50.422;18.758;2023-12-04T02:17:11;58.60;;;28.10;;
37903;SDS011;23738;50.422;18.758;2023-12-04T02:19:42;65.70;;;28.10;;
37903;SDS011;23738;50.422;18.758;2023-12-04T02:22:12;61.20;;;28.30;;
37903;SDS011;23738;50.422;18.758;2023-12-04T02:24:44;74.40;;;30.90;;
37903;SDS011;23738;50.422;18.758;2023-12-04T02:27:18;62.70;;;28.60;;
37903;SDS011;23738;50.422;18.758;2023-12-04T02:29:55;71.90;;;31.30;;
37903;SDS011;23738;50.422;18.758;2023-12-04T02:32:28;71.80;;;28.40;;
37903;SDS011;23738;50.422;18.758;2023-12-04T02:35:02;69.70;;;30.20;;
37903;SDS011;23738;50.422;18.758;2023-12-04T02:37:36;56.90;;;27.30;;
37903;SDS011;23738;50.422;18.758;2023-12-04T02:40:07;69.00;;;29.70;;
37903;SDS011;23738;50.422;18.758;2023-12-04T02:42:38;61.50;;;28.40;;
37903;SDS011;23738;50.422;18.758;2023-12-04T02:45:09;58.30;;;27.60;;
37903;SDS011;23738;50.422;18.758;2023-12-04T02:47:40;55.60;;;25.00;;
37903;SDS011;23738;50.422;18.758;2023-12-04T02:50:11;59.60;;;24.70;;
37903;SDS011;23738;50.422;18.758;2023-12-04T02:52:41;60.10;;;24.20;;
37903;SDS011;23738;50.422;18.758;2023-12-04T02:55:12;49.00;;;24.50;;
37903;SDS011;23738;50.422;18.758;2023-12-04T02:57:44;56.90;;;25.30;;
37903;SDS011;23738;50.422;18.758;2023-12-04T03:00:15;68.20;;;28.70;;
37903;SDS011;23738;50.422;18.758;2023-12-04T03:02:46;84.20;;;31.80;;
37903;SDS011;23738;50.422;18.758;2023-12-04T03:05:17;74.00;;;32.40;;
37903;SDS011;23738;50.422;18.758;2023-12-04T03:07:47;80.00;;;32.60;;
37903;SDS011;23738;50.422;18.758;2023-12-04T03:10:18;77.10;;;32.00;;
37903;SDS011;23738;50.422;18.758;2023-12-04T03:12:49;82.00;;;31.70;;
37903;SDS011;23738;50.422;18.758;2023-12-04T03:15:19;88.20;;;34.40;;
37903;SDS011;23738;50.422;18.758;2023-12-04T03:17:50;91.00;;;35.80;;
37903;SDS011;23738;50.422;18.758;2023-12-04T03:20:20;86.70;;;33.20;;
37903;SDS011;23738;50.422;18.758;2023-12-04T03:22:51;91.50;;;32.60;;
37903;SDS011;23738;50.422;18.758;2023-12-04T03:25:22;80.40;;;29.60;;
37903;SDS011;23738;50.422;18.758;2023-12-04T03:27:53;87.60;;;33.00;;
37903;SDS011;23738;50.422;18.758;2023-12-04T03:30:24;75.70;;;30.50;;
37903;SDS011;23738;50.422;18.758;2023-12-04T03:32:55;87.40;;;31.10;;
37903;SDS011;23738;50.422;18.758;2023-12-04T03:35:26;82.60;;;30.30;;
37903;SDS011;23738;50.422;18.758;2023-12-04T03:37:57;73.70;;;29.20;;
37903;SDS011;23738;50.422;18.758;2023-12-04T03:40:27;75.50;;;28.80;;
37903;SDS011;23738;50.422;18.758;2023-12-04T03:42:59;73.60;;;27.20;;
37903;SDS011;23738;50.422;18.758;2023-12-04T03:45:29;73.50;;;28.90;;
37903;SDS011;23738;50.422;18.758;2023-12-04T03:47:59;80.90;;;28.30;;
37903;SDS011;23738;50.422;18.758;2023-12-04T03:50:29;75.00;;;27.20;;
37903;SDS011;23738;50.422;18.758;2023-12-04T03:52:59;72.60;;;28.80;;
37903;SDS011;23738;50.422;18.758;2023-12-04T03:55:29;85.00;;;31.20;;
37903;SDS011;23738;50.422;18.758;2023-12-04T03:57:59;85.50;;;32.30;;
37903;SDS011;23738;50.422;18.758;2023-12-04T04:00:29;87.50;;;34.40;;
37903;SDS011;23738;50.422;18.758;2023-12-04T04:02:59;87.70;;;34.60;;
37903;SDS011;23738;50.422;18.758;2023-12-04T04:05:29;85.30;;;35.10;;
37903;SDS011;23738;50.422;18.758;2023-12-04T04:08:00;92.30;;;36.80;;
37903;SDS011;23738;50.422;18.758;2023-12-04T04:10:31;104.10;;;37.00;;
37903;SDS011;23738;50.422;18.758;2023-12-04T04:13:01;90.50;;;35.40;;
37903;SDS011;23738;50.422;18.758;2023-12-04T04:15:32;97.00;;;36.80;;
37903;SDS011;23738;50.422;18.758;2023-12-04T04:18:02;94.50;;;37.70;;
37903;SDS011;23738;50.422;18.758;2023-12-04T04:20:32;89.90;;;35.60;;
37903;SDS011;23738;50.422;18.758;2023-12-04T04:23:02;90.90;;;35.20;;
37903;SDS011;23738;50.422;18.758;2023-12-04T04:25:32;88.80;;;32.20;;
37903;SDS011;23738;50.422;18.758;2023-12-04T04:28:02;85.60;;;34.50;;
37903;SDS011;23738;50.422;18.758;2023-12-04T04:30:32;87.90;;;33.20;;
37903;SDS011;23738;50.422;18.758;2023-12-04T04:33:01;92.50;;;35.80;;
37903;SDS011;23738;50.422;18.758;2023-12-04T04:35:31;91.80;;;33.80;;
37903;SDS011;23738;50.422;18.758;2023-12-04T04:38:01;95.30;;;34.60;;
37903;SDS011;23738;50.422;18.758;2023-12-04T04:40:32;94.80;;;34.90;;
37903;SDS011;23738;50.422;18.758;2023-12-04T04:43:02;100.10;;;36.10;;
37903;SDS011;23738;50.422;18.758;2023-12-04T04:45:32;108.90;;;39.70;;
37903;SDS011;23738;50.422;18.758;2023-12-04T04:48:02;113.10;;;43.90;;
37903;SDS011;23738;50.422;18.758;2023-12-04T04:50:35;129.00;;;46.90;;
37903;SDS011;23738;50.422;18.758;2023-12-04T04:53:05;134.90;;;47.90;;
37903;SDS011;23738;50.422;18.758;2023-12-04T04:55:35;127.80;;;50.80;;
37903;SDS011;23738;50.422;18.758;2023-12-04T04:58:04;136.70;;;49.70;;
37903;SDS011;23738;50.422;18.758;2023-12-04T05:00:34;137.10;;;47.90;;
37903;SDS011;23738;50.422;18.758;2023-12-04T05:03:04;135.30;;;51.10;;
37903;SDS011;23738;50.422;18.758;2023-12-04T05:05:34;156.70;;;57.20;;
37903;SDS011;23738;50.422;18.758;2023-12-04T05:08:04;169.30;;;58.40;;
37903;SDS011;23738;50.422;18.758;2023-12-04T05:10:34;164.40;;;56.80;;
37903;SDS011;23738;50.422;18.758;2023-12-04T05:13:06;172.60;;;56.90;;
37903;SDS011;23738;50.422;18.758;2023-12-04T05:15:35;159.60;;;54.40;;
37903;SDS011;23738;50.422;18.758;2023-12-04T05:18:06;154.70;;;53.10;;
37903;SDS011;23738;50.422;18.758;2023-12-04T05:20:36;154.50;;;52.50;;
37903;SDS011;23738;50.422;18.758;2023-12-04T05:23:06;152.50;;;52.00;;
37903;SDS011;23738;50.422;18.758;2023-12-04T05:25:35;143.70;;;51.80;;
37903;SDS011;23738;50.422;18.758;2023-12-04T05:28:05;138.80;;;48.50;;
37903;SDS011;23738;50.422;18.758;2023-12-04T05:30:36;136.70;;;47.00;;
37903;SDS011;23738;50.422;18.758;2023-12-04T05:33:06;139.30;;;46.60;;
37903;SDS011;23738;50.422;18.758;2023-12-04T05:35:36;135.20;;;46.00;;
37903;SDS011;23738;50.422;18.758;2023-12-04T05:38:06;139.70;;;47.40;;
37903;SDS011;23738;50.422;18.758;2023-12-04T05:40:36;141.10;;;49.50;;
37903;SDS011;23738;50.422;18.758;2023-12-04T05:43:06;139.70;;;49.80;;
37903;SDS011;23738;50.422;18.758;2023-12-04T05:45:36;147.10;;;48.40;;
37903;SDS011;23738;50.422;18.758;2023-12-04T05:48:06;137.80;;;48.60;;
37903;SDS011;23738;50.422;18.758;2023-12-04T05:50:36;138.60;;;50.80;;
37903;SDS011;23738;50.422;18.758;2023-12-04T05:53:07;133.10;;;48.00;;
37903;SDS011;23738;50.422;18.758;2023-12-04T05:55:37;138.70;;;50.20;;
37903;SDS011;23738;50.422;18.758;2023-12-04T05:58:07;162.20;;;57.60;;
37903;SDS011;23738;50.422;18.758;2023-12-04T06:00:36;164.20;;;57.20;;
37903;SDS011;23738;50.422;18.758;2023-12-04T06:03:07;178.20;;;64.70;;
37903;SDS011;23738;50.422;18.758;2023-12-04T06:05:37;166.00;;;54.80;;
37903;SDS011;23738;50.422;18.758;2023-12-04T06:08:06;155.40;;;55.40;;
37903;SDS011;23738;50.422;18.758;2023-12-04T06:10:36;166.10;;;56.10;;
37903;SDS011;23738;50.422;18.758;2023-12-04T06:13:06;141.00;;;51.20;;
37903;SDS011;23738;50.422;18.758;2023-12-04T06:15:36;148.80;;;51.80;;
37903;SDS011;23738;50.422;18.758;2023-12-04T06:18:06;158.90;;;52.70;;
37903;SDS011;23738;50.422;18.758;2023-12-04T06:20:36;156.60;;;52.40;;
37903;SDS011;23738;50.422;18.758;2023-12-04T06:23:06;149.50;;;53.30;;
37903;SDS011;23738;50.422;18.758;2023-12-04T06:25:37;163.30;;;53.40;;
37903;SDS011;23738;50.422;18.758;2023-12-04T06:28:09;185.80;;;60.70;;
37903;SDS011;23738;50.422;18.758;2023-12-04T06:30:41;194.70;;;66.70;;
37903;SDS011;23738;50.422;18.758;2023-12-04T06:33:11;194.40;;;66.10;;
37903;SDS011;23738;50.422;18.758;2023-12-04T06:35:45;197.60;;;65.60;;
37903;SDS011;23738;50.422;18.758;2023-12-04T06:38:16;196.30;;;68.60;;
37903;SDS011;23738;50.422;18.758;2023-12-04T06:40:52;192.70;;;65.10;;
37903;SDS011;23738;50.422;18.758;2023-12-04T06:43:23;189.20;;;65.30;;
37903;SDS011;23738;50.422;18.758;2023-12-04T06:45:55;210.00;;;68.80;;
37903;SDS011;23738;50.422;18.758;2023-12-04T06:48:26;196.00;;;69.10;;
37903;SDS011;23738;50.422;18.758;2023-12-04T06:50:59;200.60;;;64.80;;
37903;SDS011;23738;50.422;18.758;2023-12-04T06:53:28;201.50;;;65.50;;
37903;SDS011;23738;50.422;18.758;2023-12-04T06:55:58;180.50;;;61.20;;
37903;SDS011;23738;50.422;18.758;2023-12-04T06:58:28;171.80;;;57.40;;
37903;SDS011;23738;50.422;18.758;2023-12-04T07:00:58;193.30;;;62.80;;
37903;SDS011;23738;50.422;18.758;2023-12-04T07:03:28;193.30;;;62.00;;
37903;SDS011;23738;50.422;18.758;2023-12-04T07:05:58;188.20;;;61.20;;
37903;SDS011;23738;50.422;18.758;2023-12-04T07:08:29;206.50;;;62.50;;
37903;SDS011;23738;50.422;18.758;2023-12-04T07:10:59;215.50;;;67.00;;
37903;SDS011;23738;50.422;18.758;2023-12-04T07:13:29;216.90;;;64.50;;
37903;SDS011;23738;50.422;18.758;2023-12-04T07:15:59;204.70;;;65.00;;
37903;SDS011;23738;50.422;18.758;2023-12-04T07:18:29;210.00;;;63.30;;
37903;SDS011;23738;50.422;18.758;2023-12-04T07:20:59;206.60;;;67.40;;
37903;SDS011;23738;50.422;18.758;2023-12-04T07:23:30;196.10;;;64.60;;
37903;SDS011;23738;50.422;18.758;2023-12-04T07:26:00;217.30;;;70.60;;
37903;SDS011;23738;50.422;18.758;2023-12-04T07:28:31;223.30;;;72.20;;
37903;SDS011;23738;50.422;18.758;2023-12-04T07:31:01;217.50;;;74.80;;
37903;SDS011;23738;50.422;18.758;2023-12-04T07:33:31;227.20;;;73.90;;
37903;SDS011;23738;50.422;18.758;2023-12-04T07:36:01;210.00;;;72.20;;
37903;SDS011;23738;50.422;18.758;2023-12-04T07:38:31;223.90;;;72.60;;
37903;SDS011;23738;50.422;18.758;2023-12-04T07:41:01;212.50;;;72.20;;
37903;SDS011;23738;50.422;18.758;2023-12-04T07:43:32;204.50;;;72.40;;
37903;SDS011;23738;50.422;18.758;2023-12-04T07:46:02;176.00;;;64.10;;
37903;SDS011;23738;50.422;18.758;2023-12-04T07:48:33;187.10;;;61.40;;
37903;SDS011;23738;50.422;18.758;2023-12-04T07:51:03;170.10;;;59.00;;
37903;SDS011;23738;50.422;18.758;2023-12-04T07:53:34;164.30;;;59.10;;
37903;SDS011;23738;50.422;18.758;2023-12-04T07:56:04;166.80;;;56.90;;
37903;SDS011;23738;50.422;18.758;2023-12-04T07:58:35;158.40;;;54.60;;
37903;SDS011;23738;50.422;18.758;2023-12-04T08:01:05;150.40;;;52.80;;
37903;SDS011;23738;50.422;18.758;2023-12-04T08:03:36;151.90;;;54.30;;
37903;SDS011;23738;50.422;18.758;2023-12-04T08:06:06;152.70;;;57.00;;
37903;SDS011;23738;50.422;18.758;2023-12-04T08:08:36;157.70;;;58.80;;
37903;SDS011;23738;50.422;18.758;2023-12-04T08:11:06;175.90;;;63.80;;
37903;SDS011;23738;50.422;18.758;2023-12-04T08:13:39;173.90;;;63.20;;
37903;SDS011;23738;50.422;18.758;2023-12-04T08:16:14;167.90;;;64.40;;
37903;SDS011;23738;50.422;18.758;2023-12-04T08:18:44;183.00;;;68.20;;
37903;SDS011;23738;50.422;18.758;2023-12-04T08:21:13;171.80;;;67.90;;
37903;SDS011;23738;50.422;18.758;2023-12-04T08:23:43;169.40;;;68.00;;
37903;SDS011;23738;50.422;18.758;2023-12-04T08:26:13;193.60;;;72.30;;
37903;SDS011;23738;50.422;18.758;2023-12-04T08:28:48;195.70;;;77.30;;
37903;SDS011;23738;50.422;18.758;2023-12-04T08:31:18;188.40;;;73.40;;
37903;SDS011;23738;50.422;18.758;2023-12-04T08:33:48;196.30;;;74.40;;
37903;SDS011;23738;50.422;18.758;2023-12-04T08:36:18;186.40;;;68.70;;
37903;SDS011;23738;50.422;18.758;2023-12-04T08:38:48;194.50;;;74.00;;
37903;SDS011;23738;50.422;18.758;2023-12-04T08:41:18;195.80;;;73.50;;
37903;SDS011;23738;50.422;18.758;2023-12-04T08:43:48;222.80;;;83.50;;
37903;SDS011;23738;50.422;18.758;2023-12-04T08:46:17;205.30;;;76.70;;
37903;SDS011;23738;50.422;18.758;2023-12-04T08:48:47;230.40;;;88.30;;
37903;SDS011;23738;50.422;18.758;2023-12-04T08:51:17;222.70;;;81.80;;
37903;SDS011;23738;50.422;18.758;2023-12-04T08:53:47;229.00;;;86.50;;
37903;SDS011;23738;50.422;18.758;2023-12-04T08:56:17;233.20;;;89.90;;
37903;SDS011;23738;50.422;18.758;2023-12-04T08:58:47;224.20;;;85.50;;
37903;SDS011;23738;50.422;18.758;2023-12-04T09:01:17;223.40;;;88.90;;
37903;SDS011;23738;50.422;18.758;2023-12-04T09:03:47;229.50;;;86.30;;
37903;SDS011;23738;50.422;18.758;2023-12-04T09:06:17;200.10;;;81.90;;
37903;SDS011;23738;50.422;18.758;2023-12-04T09:08:46;208.20;;;81.40;;
37903;SDS011;23738;50.422;18.758;2023-12-04T09:11:16;209.60;;;81.80;;
37903;SDS011;23738;50.422;18.758;2023-12-04T09:13:46;190.20;;;77.30;;
37903;SDS011;23738;50.422;18.758;2023-12-04T09:16:16;167.80;;;72.60;;
37903;SDS011;23738;50.422;18.758;2023-12-04T09:18:45;164.10;;;68.30;;
37903;SDS011;23738;50.422;18.758;2023-12-04T09:21:15;169.90;;;67.90;;
37903;SDS011;23738;50.422;18.758;2023-12-04T09:23:45;166.00;;;66.50;;
37903;SDS011;23738;50.422;18.758;2023-12-04T09:26:16;150.00;;;61.90;;
37903;SDS011;23738;50.422;18.758;2023-12-04T09:28:46;136.40;;;59.60;;
37903;SDS011;23738;50.422;18.758;2023-12-04T09:31:16;133.10;;;56.30;;
37903;SDS011;23738;50.422;18.758;2023-12-04T09:33:46;138.50;;;58.40;;
37903;SDS011;23738;50.422;18.758;2023-12-04T09:36:16;122.80;;;50.80;;
37903;SDS011;23738;50.422;18.758;2023-12-04T09:38:46;141.40;;;55.80;;
37903;SDS011;23738;50.422;18.758;2023-12-04T09:41:16;130.70;;;51.70;;
37903;SDS011;23738;50.422;18.758;2023-12-04T09:43:46;131.50;;;50.60;;
37903;SDS011;23738;50.422;18.758;2023-12-04T09:46:17;116.50;;;48.40;;
37903;SDS011;23738;50.422;18.758;2023-12-04T09:48:48;121.70;;;51.90;;
37903;SDS011;23738;50.422;18.758;2023-12-04T09:51:18;111.90;;;50.10;;
37903;SDS011;23738;50.422;18.758;2023-12-04T09:53:50;110.30;;;50.40;;
37903;SDS011;23738;50.422;18.758;2023-12-04T09:56:20;123.30;;;52.90;;
37903;SDS011;23738;50.422;18.758;2023-12-04T09:58:51;113.30;;;51.50;;
37903;SDS011;23738;50.422;18.758;2023-12-04T10:01:25;124.50;;;55.20;;
37903;SDS011;23738;50.422;18.758;2023-12-04T10:03:56;125.20;;;56.50;;
37903;SDS011;23738;50.422;18.758;2023-12-04T10:06:27;131.90;;;58.20;;
37903;SDS011;23738;50.422;18.758;2023-12-04T10:08:58;148.90;;;68.30;;
37903;SDS011;23738;50.422;18.758;2023-12-04T10:11:27;221.20;;;104.10;;
37903;SDS011;23738;50.422;18.758;2023-12-04T10:13:57;178.90;;;76.60;;
37903;SDS011;23738;50.422;18.758;2023-12-04T10:16:34;140.40;;;60.60;;
37903;SDS011;23738;50.422;18.758;2023-12-04T10:19:18;155.00;;;64.70;;
37903;SDS011;23738;50.422;18.758;2023-12-04T10:21:50;118.90;;;51.20;;
37903;SDS011;23738;50.422;18.758;2023-12-04T10:24:31;108.60;;;48.90;;
37903;SDS011;23738;50.422;18.758;2023-12-04T10:27:02;117.10;;;51.90;;
37903;SDS011;23738;50.422;18.758;2023-12-04T10:32:19;113.70;;;49.70;;
37903;SDS011;23738;50.422;18.758;2023-12-04T10:34:49;108.90;;;48.00;;
37903;SDS011;23738;50.422;18.758;2023-12-04T10:37:19;103.00;;;46.30;;
37903;SDS011;23738;50.422;18.758;2023-12-04T10:39:52;95.20;;;44.30;;
37903;SDS011;23738;50.422;18.758;2023-12-04T10:42:25;96.00;;;43.90;;
37903;SDS011;23738;50.422;18.758;2023-12-04T10:44:57;95.80;;;39.00;;
37903;SDS011;23738;50.422;18.758;2023-12-04T10:47:28;88.80;;;37.90;;
37903;SDS011;23738;50.422;18.758;2023-12-04T10:50:01;87.70;;;39.10;;
37903;SDS011;23738;50.422;18.758;2023-12-04T10:52:34;86.40;;;37.80;;
37903;SDS011;23738;50.422;18.758;2023-12-04T10:55:08;83.00;;;37.40;;
37903;SDS011;23738;50.422;18.758;2023-12-04T10:57:40;88.90;;;37.10;;
37903;SDS011;23738;50.422;18.758;2023-12-04T11:00:15;90.10;;;37.60;;
37903;SDS011;23738;50.422;18.758;2023-12-04T11:02:46;83.80;;;34.80;;
37903;SDS011;23738;50.422;18.758;2023-12-04T11:05:17;76.70;;;33.20;;
37903;SDS011;23738;50.422;18.758;2023-12-04T11:07:50;80.10;;;32.90;;
37903;SDS011;23738;50.422;18.758;2023-12-04T11:10:22;74.00;;;33.00;;
37903;SDS011;23738;50.422;18.758;2023-12-04T11:12:55;80.60;;;32.10;;
37903;SDS011;23738;50.422;18.758;2023-12-04T11:15:29;77.90;;;32.20;;
37903;SDS011;23738;50.422;18.758;2023-12-04T11:18:03;72.80;;;30.10;;
37903;SDS011;23738;50.422;18.758;2023-12-04T11:20:36;56.50;;;27.10;;
37903;SDS011;23738;50.422;18.758;2023-12-04T11:23:09;58.60;;;25.30;;
37903;SDS011;23738;50.422;18.758;2023-12-04T11:25:42;61.50;;;25.00;;
37903;SDS011;23738;50.422;18.758;2023-12-04T11:28:14;57.50;;;25.70;;
37903;SDS011;23738;50.422;18.758;2023-12-04T11:30:45;61.10;;;28.00;;
37903;SDS011;23738;50.422;18.758;2023-12-04T11:33:16;61.60;;;27.20;;
37903;SDS011;23738;50.422;18.758;2023-12-04T11:35:46;74.20;;;30.30;;
37903;SDS011;23738;50.422;18.758;2023-12-04T11:38:18;62.50;;;29.30;;
37903;SDS011;23738;50.422;18.758;2023-12-04T11:40:49;53.00;;;26.00;;
37903;SDS011;23738;50.422;18.758;2023-12-04T11:43:23;53.10;;;25.50;;
37903;SDS011;23738;50.422;18.758;2023-12-04T11:45:54;53.50;;;23.90;;
37903;SDS011;23738;50.422;18.758;2023-12-04T11:48:37;58.40;;;27.30;;
37903;SDS011;23738;50.422;18.758;2023-12-04T11:51:08;70.70;;;32.10;;
37903;SDS011;23738;50.422;18.758;2023-12-04T11:53:39;73.00;;;29.60;;
37903;SDS011;23738;50.422;18.758;2023-12-04T11:56:12;62.20;;;27.90;;
37903;SDS011;23738;50.422;18.758;2023-12-04T11:58:44;61.60;;;27.50;;
37903;SDS011;23738;50.422;18.758;2023-12-04T12:01:16;61.30;;;27.20;;
37903;SDS011;23738;50.422;18.758;2023-12-04T12:03:51;67.90;;;27.20;;
37903;SDS011;23738;50.422;18.758;2023-12-04T12:06:21;65.20;;;26.50;;
37903;SDS011;23738;50.422;18.758;2023-12-04T12:08:52;68.70;;;28.30;;
37903;SDS011;23738;50.422;18.758;2023-12-04T12:11:24;68.40;;;27.00;;
37903;SDS011;23738;50.422;18.758;2023-12-04T12:13:54;74.20;;;28.00;;
37903;SDS011;23738;50.422;18.758;2023-12-04T12:16:24;72.30;;;28.60;;
37903;SDS011;23738;50.422;18.758;2023-12-04T12:18:54;78.80;;;28.20;;
37903;SDS011;23738;50.422;18.758;2023-12-04T12:21:24;58.90;;;27.20;;
37903;SDS011;23738;50.422;18.758;2023-12-04T12:23:55;62.10;;;26.90;;
37903;SDS011;23738;50.422;18.758;2023-12-04T12:26:25;58.40;;;26.50;;
37903;SDS011;23738;50.422;18.758;2023-12-04T12:28:56;57.00;;;26.20;;
37903;SDS011;23738;50.422;18.758;2023-12-04T12:31:26;55.90;;;26.30;;
37903;SDS011;23738;50.422;18.758;2023-12-04T12:33:56;61.40;;;28.60;;
37903;SDS011;23738;50.422;18.758;2023-12-04T12:36:26;64.40;;;28.50;;
37903;SDS011;23738;50.422;18.758;2023-12-04T12:38:56;58.60;;;27.30;;
37903;SDS011;23738;50.422;18.758;2023-12-04T12:41:26;57.70;;;27.60;;
37903;SDS011;23738;50.422;18.758;2023-12-04T12:43:56;62.70;;;26.30;;
37903;SDS011;23738;50.422;18.758;2023-12-04T12:46:28;55.40;;;25.90;;
37903;SDS011;23738;50.422;18.758;2023-12-04T12:48:58;61.00;;;26.20;;
37903;SDS011;23738;50.422;18.758;2023-12-04T12:51:28;57.50;;;25.80;;
37903;SDS011;23738;50.422;18.758;2023-12-04T12:53:58;59.30;;;24.30;;
37903;SDS011;23738;50.422;18.758;2023-12-04T12:56:29;57.70;;;25.30;;
37903;SDS011;23738;50.422;18.758;2023-12-04T12:58:59;48.20;;;24.40;;
37903;SDS011;23738;50.422;18.758;2023-12-04T13:01:31;56.40;;;25.00;;
37903;SDS011;23738;50.422;18.758;2023-12-04T13:04:01;52.10;;;24.80;;
37903;SDS011;23738;50.422;18.758;2023-12-04T13:06:31;58.00;;;26.20;;
37903;SDS011;23738;50.422;18.758;2023-12-04T13:09:01;54.30;;;25.10;;
37903;SDS011;23738;50.422;18.758;2023-12-04T13:11:34;54.60;;;26.80;;
37903;SDS011;23738;50.422;18.758;2023-12-04T13:14:04;56.50;;;26.10;;
37903;SDS011;23738;50.422;18.758;2023-12-04T13:16:34;49.00;;;25.20;;
37903;SDS011;23738;50.422;18.758;2023-12-04T13:19:04;62.10;;;26.80;;
37903;SDS011;23738;50.422;18.758;2023-12-04T13:21:34;72.10;;;29.40;;
37903;SDS011;23738;50.422;18.758;2023-12-04T13:24:04;62.10;;;26.00;;
37903;SDS011;23738;50.422;18.758;2023-12-04T13:26:37;64.40;;;25.70;;
37903;SDS011;23738;50.422;18.758;2023-12-04T13:29:07;80.40;;;31.50;;
37903;SDS011;23738;50.422;18.758;2023-12-04T13:31:37;88.60;;;33.50;;
37903;SDS011;23738;50.422;18.758;2023-12-04T13:34:06;72.10;;;28.70;;
37903;SDS011;23738;50.422;18.758;2023-12-04T13:36:38;76.30;;;29.70;;
37903;SDS011;23738;50.422;18.758;2023-12-04T13:39:08;69.60;;;29.90;;
37903;SDS011;23738;50.422;18.758;2023-12-04T13:41:45;72.10;;;30.40;;
37903;SDS011;23738;50.422;18.758;2023-12-04T13:44:33;64.90;;;30.00;;
37903;SDS011;23738;50.422;18.758;2023-12-04T13:47:03;67.60;;;31.50;;
37903;SDS011;23738;50.422;18.758;2023-12-04T13:49:33;72.20;;;30.40;;
37903;SDS011;23738;50.422;18.758;2023-12-04T13:52:03;64.90;;;30.70;;
37903;SDS011;23738;50.422;18.758;2023-12-04T13:54:36;66.20;;;30.20;;
37903;SDS011;23738;50.422;18.758;2023-12-04T13:57:12;66.80;;;30.60;;
37903;SDS011;23738;50.422;18.758;2023-12-04T13:59:47;67.20;;;31.20;;
37903;SDS011;23738;50.422;18.758;2023-12-04T14:02:17;78.30;;;31.20;;
37903;SDS011;23738;50.422;18.758;2023-12-04T14:04:47;71.00;;;28.70;;
37903;SDS011;23738;50.422;18.758;2023-12-04T14:07:17;74.70;;;32.70;;
37903;SDS011;23738;50.422;18.758;2023-12-04T14:09:47;76.10;;;34.50;;
37903;SDS011;23738;50.422;18.758;2023-12-04T14:12:18;70.20;;;31.90;;
37903;SDS011;23738;50.422;18.758;2023-12-04T14:14:50;82.50;;;33.00;;
37903;SDS011;23738;50.422;18.758;2023-12-04T14:17:23;76.20;;;33.40;;
37903;SDS011;23738;50.422;18.758;2023-12-04T14:19:53;83.90;;;37.30;;
37903;SDS011;23738;50.422;18.758;2023-12-04T14:22:23;70.30;;;32.10;;
37903;SDS011;23738;50.422;18.758;2023-12-04T14:24:53;83.10;;;34.80;;
37903;SDS011;23738;50.422;18.758;2023-12-04T14:27:23;78.30;;;34.90;;
37903;SDS011;23738;50.422;18.758;2023-12-04T14:29:53;80.90;;;38.80;;